createdAt,value
2023-01-08T00:01:23.077Z,8.30
2023-01-08T00:03:50.635Z,8.30
2023-01-08T00:06:18.894Z,8.30
2023-01-08T00:08:46.112Z,8.30
2023-01-08T00:11:13.377Z,9.50
2023-01-08T00:13:40.541Z,8.30
2023-01-08T00:16:09.843Z,8.30
2023-01-08T00:18:36.993Z,8.40
2023-01-08T00:21:04.734Z,8.40
2023-01-08T00:23:31.868Z,8.50
2023-01-08T00:26:02.562Z,8.40
2023-01-08T00:28:29.773Z,8.40
2023-01-08T00:30:57.157Z,8.00
2023-01-08T00:33:24.795Z,8.40
2023-01-08T00:35:51.882Z,8.40
2023-01-08T00:38:18.985Z,8.30
2023-01-08T00:40:48.259Z,8.40
2023-01-08T00:43:15.415Z,8.50
2023-01-08T00:45:42.721Z,8.50
2023-01-08T00:48:10.517Z,8.50
2023-01-08T00:50:37.804Z,8.50
2023-01-08T00:53:04.942Z,8.50
2023-01-08T00:55:32.072Z,8.50
2023-01-08T00:57:59.251Z,8.50
2023-01-08T01:00:26.487Z,8.50
2023-01-08T01:02:53.599Z,8.60
2023-01-08T01:05:20.975Z,9.60
2023-01-08T01:07:48.158Z,9.40
2023-01-08T01:10:16.328Z,8.60
2023-01-08T01:12:43.796Z,8.60
2023-01-08T01:15:12.432Z,8.60
2023-01-08T01:17:39.925Z,8.50
2023-01-08T01:20:08.269Z,8.50
2023-01-08T01:22:35.775Z,8.60
2023-01-08T01:25:03.176Z,8.60
2023-01-08T01:27:30.278Z,8.50
2023-01-08T01:29:57.428Z,8.50
2023-01-08T01:32:24.510Z,8.50
2023-01-08T01:34:51.616Z,8.50
2023-01-08T01:37:18.753Z,8.60
2023-01-08T01:39:48.473Z,8.30
2023-01-08T01:42:36.618Z,8.60
2023-01-08T01:45:04.665Z,8.80
2023-01-08T01:47:37.625Z,8.60
2023-01-08T01:50:13.419Z,8.70
2023-01-08T01:52:46.518Z,8.60
2023-01-08T01:55:15.984Z,8.60
2023-01-08T01:57:49.094Z,8.60
2023-01-08T02:00:16.374Z,8.60
2023-01-08T02:02:43.792Z,9.30
2023-01-08T02:05:11.179Z,8.70
2023-01-08T02:07:47.204Z,8.60
2023-01-08T02:10:20.577Z,8.60
2023-01-08T02:12:52.160Z,8.70
2023-01-08T02:15:25.392Z,8.70
2023-01-08T02:18:07.554Z,8.60
2023-01-08T02:20:39.701Z,8.70
2023-01-08T02:23:27.216Z,8.70
2023-01-08T02:26:03.245Z,8.70
2023-01-08T02:28:32.675Z,8.70
2023-01-08T02:31:00.141Z,8.60
2023-01-08T02:33:28.155Z,8.70
2023-01-08T02:36:15.724Z,8.80
2023-01-08T02:38:50.846Z,8.80
2023-01-08T02:41:19.500Z,8.70
2023-01-08T02:43:48.442Z,8.00
2023-01-08T02:46:19.267Z,8.80
2023-01-08T02:48:48.685Z,8.80
2023-01-08T02:51:24.225Z,8.80
2023-01-08T02:53:53.681Z,8.80
2023-01-08T02:56:22.421Z,8.90
2023-01-08T02:58:50.626Z,8.90
2023-01-08T03:01:18.848Z,8.90
2023-01-08T03:03:57.095Z,8.90
2023-01-08T03:06:24.968Z,8.90
2023-01-08T03:08:52.761Z,8.80
2023-01-08T03:11:21.325Z,8.90
2023-01-08T03:13:57.019Z,8.90
2023-01-08T03:16:29.023Z,8.90
2023-01-08T03:18:59.795Z,8.90
2023-01-08T03:21:27.248Z,8.90
2023-01-08T03:23:54.391Z,8.90
2023-01-08T03:26:22.858Z,8.80
2023-01-08T03:28:52.355Z,8.80
2023-01-08T03:31:20.455Z,8.80
2023-01-08T03:33:47.848Z,8.70
2023-01-08T03:36:16.727Z,6.90
2023-01-08T03:39:04.107Z,8.70
2023-01-08T03:41:32.940Z,8.70
2023-01-08T03:44:00.123Z,8.60
2023-01-08T03:46:32.986Z,8.60
2023-01-08T03:49:01.311Z,8.60
2023-01-08T03:51:28.448Z,8.60
2023-01-08T03:53:58.562Z,8.60
2023-01-08T03:56:26.074Z,8.60
2023-01-08T03:58:53.176Z,8.60
2023-01-08T04:01:20.342Z,8.50
2023-01-08T04:03:47.547Z,8.50
2023-01-08T04:06:14.641Z,8.50
2023-01-08T04:08:41.752Z,8.60
2023-01-08T04:11:08.853Z,8.50
2023-01-08T04:13:35.920Z,8.60
2023-01-08T04:16:03.072Z,8.60
2023-01-08T04:18:30.229Z,8.60
2023-01-08T04:20:57.391Z,8.60
2023-01-08T04:23:24.528Z,8.60
2023-01-08T04:25:51.952Z,8.60
2023-01-08T04:28:19.290Z,8.60
2023-01-08T04:30:46.398Z,8.60
2023-01-08T04:33:13.490Z,8.60
2023-01-08T04:35:40.584Z,8.60
2023-01-08T04:38:07.706Z,8.50
2023-01-08T04:40:34.950Z,8.40
2023-01-08T04:43:02.094Z,8.20
2023-01-08T04:45:29.241Z,8.40
2023-01-08T04:47:56.979Z,8.40
2023-01-08T04:50:24.221Z,8.40
2023-01-08T04:52:51.420Z,8.30
2023-01-08T04:55:18.755Z,8.30
2023-01-08T04:57:46.002Z,8.40
2023-01-08T05:00:13.418Z,8.40
2023-01-08T05:02:40.710Z,8.40
2023-01-08T05:05:08.119Z,8.30
2023-01-08T05:07:35.213Z,8.30
2023-01-08T05:10:02.297Z,8.20
2023-01-08T05:12:29.410Z,8.20
2023-01-08T05:14:56.496Z,8.10
2023-01-08T05:17:23.609Z,8.20
2023-01-08T05:19:50.709Z,8.10
2023-01-08T05:22:17.820Z,8.00
2023-01-08T05:24:44.896Z,7.90
2023-01-08T05:27:12.023Z,8.00
2023-01-08T05:29:39.113Z,7.90
2023-01-08T05:32:07.876Z,7.00
2023-01-08T05:34:34.982Z,7.80
2023-01-08T05:37:02.095Z,7.50
2023-01-08T05:39:29.216Z,8.20
2023-01-08T05:41:56.326Z,7.80
2023-01-08T05:44:23.441Z,7.90
2023-01-08T05:46:52.844Z,7.90
2023-01-08T05:49:21.931Z,7.90
2023-01-08T05:51:49.035Z,7.90
2023-01-08T05:54:16.277Z,8.20
2023-01-08T05:56:44.122Z,8.00
2023-01-08T05:59:11.937Z,7.90
2023-01-08T06:01:39.220Z,7.90
2023-01-08T06:04:06.442Z,7.90
2023-01-08T06:06:33.567Z,7.80
2023-01-08T06:09:00.639Z,7.80
2023-01-08T06:11:27.752Z,7.80
2023-01-08T06:13:54.850Z,7.70
2023-01-08T06:16:22.222Z,7.80
2023-01-08T06:18:49.365Z,7.80
2023-01-08T06:21:16.501Z,7.80
2023-01-08T06:23:43.643Z,7.80
2023-01-08T06:26:10.775Z,7.90
2023-01-08T06:28:37.850Z,7.80
2023-01-08T06:31:05.040Z,7.90
2023-01-08T06:33:32.297Z,7.80
2023-01-08T06:35:59.924Z,7.80
2023-01-08T06:38:27.041Z,7.70
2023-01-08T06:40:54.160Z,7.70
2023-01-08T06:43:24.014Z,7.70
2023-01-08T06:45:54.864Z,7.60
2023-01-08T06:48:22.039Z,7.60
2023-01-08T06:50:49.108Z,7.70
2023-01-08T06:53:16.221Z,7.70
2023-01-08T06:55:43.401Z,7.60
2023-01-08T06:58:12.196Z,7.60
2023-01-08T07:00:39.630Z,8.90
2023-01-08T07:03:06.892Z,7.70
2023-01-08T07:05:34.083Z,7.70
2023-01-08T07:08:01.185Z,7.60
2023-01-08T07:10:28.393Z,7.80
2023-01-08T07:12:55.519Z,7.80
2023-01-08T07:15:23.415Z,7.70
2023-01-08T07:17:50.524Z,7.70
2023-01-08T07:20:17.607Z,7.70
2023-01-08T07:22:44.717Z,7.70
2023-01-08T07:25:12.381Z,7.70
2023-01-08T07:27:39.446Z,8.20
2023-01-08T07:30:08.397Z,7.80
2023-01-08T07:32:38.093Z,7.70
2023-01-08T07:35:05.347Z,7.70
2023-01-08T07:37:32.614Z,7.70
2023-01-08T07:39:59.732Z,7.70
2023-01-08T07:42:26.836Z,6.70
2023-01-08T07:44:53.937Z,7.70
2023-01-08T07:47:21.038Z,7.70
2023-01-08T07:49:48.110Z,7.70
2023-01-08T07:52:15.260Z,7.70
2023-01-08T07:54:45.450Z,7.80
2023-01-08T07:57:12.597Z,7.90
2023-01-08T07:59:39.723Z,7.90
2023-01-08T08:02:07.010Z,7.80
2023-01-08T08:04:34.224Z,7.70
2023-01-08T08:07:01.450Z,7.80
2023-01-08T08:09:28.808Z,7.70
2023-01-08T08:11:55.951Z,7.70
2023-01-08T08:14:23.062Z,7.70
2023-01-08T08:16:50.172Z,7.60
2023-01-08T08:19:17.289Z,8.80
2023-01-08T08:21:44.381Z,7.50
2023-01-08T08:24:11.550Z,7.60
2023-01-08T08:26:38.664Z,7.50
2023-01-08T08:29:05.778Z,7.60
2023-01-08T08:31:32.996Z,7.60
2023-01-08T08:34:00.123Z,7.60
2023-01-08T08:36:30.810Z,7.30
2023-01-08T08:38:58.039Z,7.60
2023-01-08T08:41:25.288Z,7.70
2023-01-08T08:43:52.430Z,7.70
2023-01-08T08:46:19.637Z,7.70
2023-01-08T08:48:46.839Z,7.60
2023-01-08T08:51:14.377Z,7.60
2023-01-08T08:53:41.496Z,7.50
2023-01-08T08:56:08.734Z,7.60
2023-01-08T08:58:36.032Z,7.60
2023-01-08T09:01:04.105Z,7.70
2023-01-08T09:03:31.301Z,7.70
2023-01-08T09:05:59.856Z,7.80
2023-01-08T09:08:27.354Z,7.70
2023-01-08T09:10:54.676Z,8.00
2023-01-08T09:13:21.890Z,7.70
2023-01-08T09:15:49.076Z,7.70
2023-01-08T09:18:16.295Z,7.60
2023-01-08T09:20:43.403Z,8.80
2023-01-08T09:23:10.567Z,7.70
2023-01-08T09:25:37.687Z,7.70
2023-01-08T09:28:07.547Z,7.70
2023-01-08T09:30:35.039Z,6.60
2023-01-08T09:33:03.263Z,7.70
2023-01-08T09:35:31.317Z,7.90
2023-01-08T09:37:58.830Z,7.70
2023-01-08T09:40:32.349Z,7.70
2023-01-08T09:43:01.027Z,7.80
2023-01-08T09:45:30.339Z,7.80
2023-01-08T09:47:59.339Z,7.80
2023-01-08T09:50:27.948Z,7.80
2023-01-08T09:52:55.132Z,7.90
2023-01-08T09:55:22.278Z,7.90
2023-01-08T09:57:49.419Z,7.90
2023-01-08T10:00:18.722Z,8.00
2023-01-08T10:02:46.154Z,8.10
2023-01-08T10:05:14.647Z,8.10
2023-01-08T10:07:42.102Z,8.20
2023-01-08T10:10:18.080Z,8.30
2023-01-08T10:12:45.519Z,8.40
2023-01-08T10:15:15.008Z,8.90
2023-01-08T10:17:46.002Z,8.50
2023-01-08T10:20:18.066Z,8.60
2023-01-08T10:22:47.683Z,8.60
2023-01-08T10:25:17.111Z,8.50
2023-01-08T10:27:52.594Z,8.60
2023-01-08T10:30:21.587Z,8.70
2023-01-08T10:32:53.520Z,8.70
2023-01-08T10:35:24.068Z,8.70
2023-01-08T10:37:51.450Z,8.70
2023-01-08T10:40:30.282Z,8.70
2023-01-08T10:43:05.711Z,8.70
2023-01-08T10:45:33.283Z,8.80
2023-01-08T10:48:01.676Z,8.80
2023-01-08T10:50:30.652Z,8.80
2023-01-08T10:53:01.667Z,8.90
2023-01-08T10:55:31.695Z,9.00
2023-01-08T10:58:11.082Z,9.10
2023-01-08T11:00:38.407Z,9.10
2023-01-08T11:03:06.596Z,9.20
2023-01-08T11:05:35.016Z,9.20
2023-01-08T11:08:03.923Z,9.30
2023-01-08T11:10:32.972Z,9.30
2023-01-08T11:13:01.384Z,9.40
2023-01-08T11:15:36.873Z,9.40
2023-01-08T11:18:11.540Z,9.50
2023-01-08T11:20:38.924Z,9.40
2023-01-08T11:23:06.948Z,9.40
2023-01-08T11:25:34.553Z,9.00
2023-01-08T11:28:02.387Z,9.40
2023-01-08T11:30:32.441Z,9.30
2023-01-08T11:32:59.733Z,9.30
2023-01-08T11:35:26.993Z,9.30
2023-01-08T11:38:02.007Z,9.30
2023-01-08T11:40:47.532Z,9.30
2023-01-08T11:43:33.393Z,8.80
2023-01-08T11:46:06.398Z,9.30
2023-01-08T11:48:52.501Z,9.30
2023-01-08T11:51:22.442Z,9.30
2023-01-08T11:54:05.077Z,9.40
2023-01-08T11:56:40.982Z,9.40
2023-01-08T11:59:26.649Z,9.40
2023-01-08T12:02:12.644Z,9.40
2023-01-08T12:04:58.524Z,9.50
2023-01-08T12:07:33.645Z,9.60
2023-01-08T12:10:09.498Z,9.70
2023-01-08T12:12:55.318Z,9.70
2023-01-08T12:15:40.962Z,9.80
2023-01-08T12:18:26.890Z,10.30
2023-01-08T12:21:02.804Z,10.00
2023-01-08T12:23:38.502Z,9.70
2023-01-08T12:26:10.156Z,10.20
2023-01-08T12:28:37.243Z,10.10
2023-01-08T12:31:22.364Z,10.00
2023-01-08T12:33:57.433Z,10.00
2023-01-08T12:36:26.773Z,10.00
2023-01-08T12:39:06.158Z,10.00
2023-01-08T12:41:35.307Z,10.00
2023-01-08T12:44:04.073Z,10.00
2023-01-08T12:46:35.453Z,10.00
2023-01-08T12:49:04.404Z,10.10
2023-01-08T12:51:31.481Z,9.80
2023-01-08T12:54:01.589Z,9.70
2023-01-08T12:56:43.956Z,9.70
2023-01-08T12:59:11.189Z,8.80
2023-01-08T13:01:43.692Z,9.70
2023-01-08T13:04:11.498Z,9.70
2023-01-08T13:06:38.852Z,9.70
2023-01-08T13:09:06.004Z,9.70
2023-01-08T13:11:42.377Z,9.60
2023-01-08T13:14:11.110Z,9.70
2023-01-08T13:16:39.673Z,9.70
2023-01-08T13:19:08.087Z,9.70
2023-01-08T13:21:35.249Z,9.70
2023-01-08T13:24:07.142Z,9.70
2023-01-08T13:26:36.055Z,9.70
2023-01-08T13:29:07.118Z,9.60
2023-01-08T13:31:41.442Z,9.60
2023-01-08T13:34:22.051Z,9.50
2023-01-08T13:36:56.391Z,9.50
2023-01-08T13:39:24.343Z,9.10
2023-01-08T13:42:00.572Z,9.40
2023-01-08T13:44:32.205Z,9.30
2023-01-08T13:47:01.128Z,9.30
2023-01-08T13:49:34.032Z,9.30
2023-01-08T13:52:01.276Z,9.30
2023-01-08T13:54:32.025Z,9.30
2023-01-08T13:57:04.173Z,10.10
2023-01-08T13:59:31.271Z,9.30
2023-01-08T14:02:01.314Z,9.30
2023-01-08T14:04:28.608Z,9.20
2023-01-08T14:07:05.612Z,9.20
2023-01-08T14:09:34.624Z,9.20
2023-01-08T14:12:02.785Z,9.10
2023-01-08T14:14:29.929Z,9.10
2023-01-08T14:16:57.808Z,9.10
2023-01-08T14:19:25.534Z,9.10
2023-01-08T14:21:53.917Z,9.00
2023-01-08T14:24:22.315Z,9.10
2023-01-08T14:26:53.486Z,9.00
2023-01-08T14:29:21.541Z,9.00
2023-01-08T14:31:49.974Z,9.00
2023-01-08T14:34:17.644Z,8.90
2023-01-08T14:36:44.862Z,8.80
2023-01-08T14:39:25.735Z,8.80
2023-01-08T14:42:13.253Z,8.80
2023-01-08T14:44:42.605Z,8.60
2023-01-08T14:47:18.538Z,8.90
2023-01-08T14:49:49.734Z,8.80
2023-01-08T14:52:18.514Z,8.90
2023-01-08T14:54:46.463Z,8.60
2023-01-08T14:57:13.784Z,8.80
2023-01-08T14:59:41.008Z,8.50
2023-01-08T15:02:16.016Z,8.50
2023-01-08T15:04:43.303Z,8.50
2023-01-08T15:07:19.310Z,8.50
2023-01-08T15:09:55.635Z,8.40
2023-01-08T15:12:24.709Z,8.40
2023-01-08T15:14:52.265Z,9.10
2023-01-08T15:17:20.823Z,8.40
2023-01-08T15:19:50.275Z,8.30
2023-01-08T15:22:22.472Z,8.30
2023-01-08T15:24:55.522Z,8.30
2023-01-08T15:27:22.668Z,8.30
2023-01-08T15:29:59.739Z,8.20
2023-01-08T15:32:32.456Z,8.20
2023-01-08T15:34:59.809Z,8.20
2023-01-08T15:37:27.372Z,8.10
2023-01-08T15:39:54.484Z,7.90
2023-01-08T15:42:41.642Z,7.90
2023-01-08T15:45:28.467Z,8.00
2023-01-08T15:47:56.352Z,8.10
2023-01-08T15:50:24.385Z,7.90
2023-01-08T15:52:51.589Z,7.80
2023-01-08T15:55:20.146Z,7.80
2023-01-08T15:57:47.738Z,7.80
2023-01-08T16:00:15.683Z,7.80
2023-01-08T16:02:46.400Z,8.80
2023-01-08T16:05:14.512Z,7.80
2023-01-08T16:07:41.611Z,7.70
2023-01-08T16:10:09.191Z,8.30
2023-01-08T16:12:36.342Z,7.60
2023-01-08T16:15:03.493Z,7.60
2023-01-08T16:17:30.621Z,7.60
2023-01-08T16:19:57.756Z,7.50
2023-01-08T16:22:24.845Z,7.50
2023-01-08T16:24:51.953Z,7.40
2023-01-08T16:27:19.109Z,7.40
2023-01-08T16:29:46.181Z,7.40
2023-01-08T16:32:13.297Z,7.40
2023-01-08T16:34:40.387Z,7.40
2023-01-08T16:37:08.008Z,7.40
2023-01-08T16:39:35.119Z,7.50
2023-01-08T16:42:02.234Z,7.50
2023-01-08T16:44:29.334Z,7.50
2023-01-08T16:46:56.663Z,7.50
2023-01-08T16:49:23.769Z,7.50
2023-01-08T16:51:51.576Z,7.50
2023-01-08T16:54:18.722Z,7.50
2023-01-08T16:56:45.989Z,7.60
2023-01-08T16:59:22.716Z,7.60
2023-01-08T17:01:51.668Z,6.60
2023-01-08T17:04:18.925Z,7.60
2023-01-08T17:06:46.993Z,7.60
2023-01-08T17:09:15.459Z,7.60
2023-01-08T17:11:42.664Z,8.60
2023-01-08T17:14:10.168Z,7.70
2023-01-08T17:16:37.453Z,7.70
2023-01-08T17:19:04.837Z,7.80
2023-01-08T17:21:33.707Z,7.70
2023-01-08T17:24:00.804Z,7.70
2023-01-08T17:26:27.915Z,7.60
2023-01-08T17:28:55.115Z,7.60
2023-01-08T17:31:22.304Z,7.70
2023-01-08T17:33:50.374Z,7.70
2023-01-08T17:36:22.162Z,7.70
2023-01-08T17:38:53.086Z,7.80
2023-01-08T17:41:39.244Z,7.70
2023-01-08T17:44:07.155Z,7.80
2023-01-08T17:46:35.703Z,8.20
2023-01-08T17:49:03.786Z,7.60
2023-01-08T17:51:32.455Z,7.60
2023-01-08T17:53:59.819Z,6.90
2023-01-08T17:56:27.210Z,7.50
2023-01-08T17:58:54.354Z,7.50
2023-01-08T18:01:21.661Z,8.30
2023-01-08T18:03:49.537Z,7.40
2023-01-08T18:06:16.672Z,7.30
2023-01-08T18:08:43.776Z,7.30
2023-01-08T18:11:11.040Z,7.30
2023-01-08T18:13:38.407Z,7.20
2023-01-08T18:16:07.076Z,7.20
2023-01-08T18:18:34.317Z,7.20
2023-01-08T18:21:01.493Z,7.20
2023-01-08T18:23:29.048Z,7.30
2023-01-08T18:25:56.462Z,7.20
2023-01-08T18:28:23.718Z,7.20
2023-01-08T18:30:50.774Z,7.30
2023-01-08T18:33:17.877Z,7.30
2023-01-08T18:35:44.970Z,7.30
2023-01-08T18:38:17.831Z,7.30
2023-01-08T18:40:45.307Z,8.60
2023-01-08T18:43:12.469Z,7.30
2023-01-08T18:45:39.672Z,7.20
2023-01-08T18:48:07.907Z,7.20
2023-01-08T18:50:40.449Z,7.20
2023-01-08T18:53:08.026Z,7.20
2023-01-08T18:55:36.147Z,7.20
2023-01-08T18:58:05.176Z,7.20
2023-01-08T19:00:32.364Z,7.10
2023-01-08T19:02:59.574Z,7.10
2023-01-08T19:05:26.754Z,7.10
2023-01-08T19:07:54.017Z,7.00
2023-01-08T19:10:21.818Z,7.00
2023-01-08T19:12:50.700Z,7.00
2023-01-08T19:15:17.963Z,7.00
2023-01-08T19:17:45.218Z,7.00
2023-01-08T19:20:12.475Z,7.10
2023-01-08T19:22:39.585Z,6.80
2023-01-08T19:25:07.075Z,6.80
2023-01-08T19:27:35.019Z,6.70
2023-01-08T19:30:03.359Z,6.70
2023-01-08T19:32:30.471Z,6.70
2023-01-08T19:34:57.648Z,6.60
2023-01-08T19:37:24.789Z,6.70
2023-01-08T19:39:52.477Z,6.60
2023-01-08T19:42:38.502Z,6.60
2023-01-08T19:45:06.054Z,6.60
2023-01-08T19:47:33.163Z,6.50
2023-01-08T19:50:00.535Z,6.50
2023-01-08T19:52:28.542Z,6.50
2023-01-08T19:54:57.185Z,6.50
2023-01-08T19:57:24.725Z,6.50
2023-01-08T19:59:51.875Z,6.50
2023-01-08T20:02:19.494Z,7.20
2023-01-08T20:04:46.747Z,6.50
2023-01-08T20:07:14.197Z,6.60
2023-01-08T20:09:42.289Z,6.50
2023-01-08T20:12:09.674Z,6.40
2023-01-08T20:14:36.990Z,6.50
2023-01-08T20:17:04.451Z,6.50
2023-01-08T20:19:31.844Z,6.50
2023-01-08T20:21:59.048Z,6.50
2023-01-08T20:24:26.306Z,6.60
2023-01-08T20:26:53.413Z,6.50
2023-01-08T20:29:20.542Z,6.50
2023-01-08T20:31:50.176Z,6.60
2023-01-08T20:34:17.434Z,6.60
2023-01-08T20:36:45.225Z,6.50
2023-01-08T20:39:13.491Z,6.60
2023-01-08T20:41:46.632Z,6.60
2023-01-08T20:44:23.001Z,6.10
2023-01-08T20:46:50.158Z,6.60
2023-01-08T20:49:19.882Z,6.60
2023-01-08T20:51:58.134Z,6.50
2023-01-08T20:54:26.254Z,6.40
2023-01-08T20:56:54.987Z,6.50
2023-01-08T20:59:24.114Z,6.50
2023-01-08T21:01:51.518Z,6.50
2023-01-08T21:04:19.321Z,6.50
2023-01-08T21:06:46.649Z,6.50
2023-01-08T21:09:16.173Z,6.60
2023-01-08T21:11:43.636Z,6.50
2023-01-08T21:14:11.183Z,6.40
2023-01-08T21:16:40.667Z,6.50
2023-01-08T21:19:10.390Z,6.50
2023-01-08T21:21:40.128Z,6.40
2023-01-08T21:24:11.516Z,6.40
2023-01-08T21:26:39.176Z,6.40
2023-01-08T21:29:07.349Z,6.40
2023-01-08T21:31:35.613Z,7.20
2023-01-08T21:34:03.337Z,6.40
2023-01-08T21:36:31.613Z,6.40
2023-01-08T21:39:00.276Z,6.40
2023-01-08T21:41:46.632Z,6.40
2023-01-08T21:44:34.374Z,6.50
2023-01-08T21:47:02.094Z,6.60
2023-01-08T21:49:29.436Z,6.40
2023-01-08T21:52:15.339Z,6.60
2023-01-08T21:54:42.776Z,6.60
2023-01-08T21:57:10.327Z,5.60
2023-01-08T21:59:37.785Z,6.60
2023-01-08T22:02:05.562Z,6.50
2023-01-08T22:04:32.951Z,6.60
2023-01-08T22:07:00.077Z,6.70
2023-01-08T22:09:27.233Z,6.80
2023-01-08T22:11:54.967Z,6.80
2023-01-08T22:14:22.147Z,6.80
2023-01-08T22:16:49.338Z,6.70
2023-01-08T22:19:16.459Z,6.70
2023-01-08T22:21:43.623Z,6.60
2023-01-08T22:24:10.743Z,6.70
2023-01-08T22:26:38.067Z,6.70
2023-01-08T22:29:08.228Z,6.70
2023-01-08T22:31:35.408Z,5.70
2023-01-08T22:34:02.617Z,6.70
2023-01-08T22:36:29.933Z,6.60
2023-01-08T22:38:57.241Z,6.60
2023-01-08T22:41:24.661Z,6.70
2023-01-08T22:43:56.624Z,6.70
2023-01-08T22:46:24.260Z,6.60
2023-01-08T22:48:51.362Z,6.60
2023-01-08T22:51:21.303Z,6.70
2023-01-08T22:53:48.401Z,6.70
2023-01-08T22:56:15.579Z,6.60
2023-01-08T22:58:45.363Z,6.60
2023-01-08T23:01:12.734Z,6.60
2023-01-08T23:03:43.091Z,6.60
2023-01-08T23:06:11.119Z,6.60
2023-01-08T23:08:39.401Z,6.60
2023-01-08T23:11:07.352Z,6.60
2023-01-08T23:13:34.864Z,6.70
2023-01-08T23:16:02.411Z,8.10
2023-01-08T23:18:29.573Z,6.80
2023-01-08T23:21:00.890Z,6.80
2023-01-08T23:23:28.047Z,6.80
2023-01-08T23:25:55.130Z,6.90
2023-01-08T23:28:22.308Z,6.90
2023-01-08T23:30:49.422Z,7.00
2023-01-08T23:33:16.735Z,7.30
2023-01-08T23:35:43.826Z,7.00
2023-01-08T23:38:10.952Z,7.10
2023-01-08T23:40:41.726Z,7.10
2023-01-08T23:43:08.857Z,7.10
2023-01-08T23:45:36.738Z,7.10
2023-01-08T23:48:04.143Z,7.20
2023-01-08T23:50:31.351Z,7.10
2023-01-08T23:52:58.465Z,7.20
2023-01-08T23:55:25.628Z,7.80
2023-01-08T23:57:52.719Z,7.20
